sensor_id;sensor_type;location;lat;lon;timestamp;pressure;altitude;pressure_sealevel;temperature;humidity
33185;BME280;19550;42.872;25.494;2024-03-23T00:52:44;96511.91;;;1.16;100.00
33185;BME280;19550;42.872;25.494;2024-03-23T00:55:11;96494.00;;;0.98;100.00
33185;BME280;19550;42.872;25.494;2024-03-23T00:57:37;96498.66;;;1.03;100.00
33185;BME280;19550;42.872;25.494;2024-03-23T01:00:05;96502.09;;;0.93;100.00
33185;BME280;19550;42.872;25.494;2024-03-23T01:02:35;96503.75;;;0.94;100.00
33185;BME280;19550;42.872;25.494;2024-03-23T01:05:01;96496.56;;;0.83;100.00
33185;BME280;19550;42.872;25.494;2024-03-23T01:07:28;96503.09;;;0.82;100.00
33185;BME280;19550;42.872;25.494;2024-03-23T01:09:55;96501.97;;;0.78;100.00
33185;BME280;19550;42.872;25.494;2024-03-23T01:12:21;96499.69;;;0.70;100.00
33185;BME280;19550;42.872;25.494;2024-03-23T01:14:47;96502.16;;;0.71;100.00
33185;BME280;19550;42.872;25.494;2024-03-23T01:17:14;96502.00;;;0.83;100.00
33185;BME280;19550;42.872;25.494;2024-03-23T01:19:40;96502.59;;;0.85;100.00
33185;BME280;19550;42.872;25.494;2024-03-23T01:22:07;96496.19;;;0.74;100.00
33185;BME280;19550;42.872;25.494;2024-03-23T01:24:32;96502.41;;;0.70;100.00
33185;BME280;19550;42.872;25.494;2024-03-23T01:27:03;96496.88;;;0.60;100.00
33185;BME280;19550;42.872;25.494;2024-03-23T01:29:29;96496.78;;;0.55;100.00
33185;BME280;19550;42.872;25.494;2024-03-23T01:31:55;96488.31;;;0.51;100.00
33185;BME280;19550;42.872;25.494;2024-03-23T01:34:21;96492.97;;;0.56;100.00
33185;BME280;19550;42.872;25.494;2024-03-23T01:36:50;96502.91;;;0.67;100.00
33185;BME280;19550;42.872;25.494;2024-03-23T01:39:16;96501.75;;;0.58;100.00
33185;BME280;19550;42.872;25.494;2024-03-23T01:41:42;96495.13;;;0.54;100.00
33185;BME280;19550;42.872;25.494;2024-03-23T01:44:10;96495.00;;;0.65;100.00
33185;BME280;19550;42.872;25.494;2024-03-23T01:46:37;96480.84;;;0.68;100.00
33185;BME280;19550;42.872;25.494;2024-03-23T01:49:04;96484.72;;;0.72;100.00
33185;BME280;19550;42.872;25.494;2024-03-23T01:51:32;96494.72;;;0.67;100.00
33185;BME280;19550;42.872;25.494;2024-03-23T01:54:00;96497.94;;;0.59;100.00
33185;BME280;19550;42.872;25.494;2024-03-23T01:56:29;96496.59;;;0.61;100.00
33185;BME280;19550;42.872;25.494;2024-03-23T01:58:55;96492.28;;;0.65;100.00
33185;BME280;19550;42.872;25.494;2024-03-23T02:01:23;96492.28;;;0.65;100.00
33185;BME280;19550;42.872;25.494;2024-03-23T02:03:49;96487.66;;;0.44;100.00
33185;BME280;19550;42.872;25.494;2024-03-23T02:06:16;96494.44;;;0.42;100.00
33185;BME280;19550;42.872;25.494;2024-03-23T02:08:42;96483.09;;;0.50;100.00
33185;BME280;19550;42.872;25.494;2024-03-23T02:11:09;96484.16;;;0.49;100.00
33185;BME280;19550;42.872;25.494;2024-03-23T02:13:35;96482.59;;;0.53;100.00
33185;BME280;19550;42.872;25.494;2024-03-23T02:16:02;96489.63;;;0.49;100.00
33185;BME280;19550;42.872;25.494;2024-03-23T02:18:29;96488.31;;;0.51;100.00
33185;BME280;19550;42.872;25.494;2024-03-23T02:20:56;96491.22;;;0.45;100.00
33185;BME280;19550;42.872;25.494;2024-03-23T02:23:23;96486.03;;;0.43;100.00
33185;BME280;19550;42.872;25.494;2024-03-23T02:25:50;96480.75;;;0.58;100.00
33185;BME280;19550;42.872;25.494;2024-03-23T02:28:16;96486.06;;;0.48;100.00
33185;BME280;19550;42.872;25.494;2024-03-23T02:30:43;96482.53;;;0.48;100.00
33185;BME280;19550;42.872;25.494;2024-03-23T02:33:09;96491.72;;;0.42;100.00
33185;BME280;19550;42.872;25.494;2024-03-23T02:35:36;96488.63;;;0.33;100.00
33185;BME280;19550;42.872;25.494;2024-03-23T02:38:02;96489.00;;;0.20;100.00
33185;BME280;19550;42.872;25.494;2024-03-23T02:40:31;96484.06;;;0.17;100.00
33185;BME280;19550;42.872;25.494;2024-03-23T02:42:56;96485.47;;;0.19;100.00
33185;BME280;19550;42.872;25.494;2024-03-23T02:45:23;96473.22;;;0.22;100.00
33185;BME280;19550;42.872;25.494;2024-03-23T02:47:49;96482.78;;;0.24;100.00
33185;BME280;19550;42.872;25.494;2024-03-23T02:50:17;96481.19;;;0.28;100.00
33185;BME280;19550;42.872;25.494;2024-03-23T02:52:43;96489.31;;;0.23;100.00
33185;BME280;19550;42.872;25.494;2024-03-23T02:55:10;96489.56;;;0.22;100.00
33185;BME280;19550;42.872;25.494;2024-03-23T02:57:37;96478.28;;;0.35;100.00
33185;BME280;19550;42.872;25.494;2024-03-23T03:00:05;96479.63;;;0.32;100.00
33185;BME280;19550;42.872;25.494;2024-03-23T03:02:32;96475.00;;;0.33;100.00
33185;BME280;19550;42.872;25.494;2024-03-23T03:04:59;96480.13;;;0.29;100.00
33185;BME280;19550;42.872;25.494;2024-03-23T03:07:25;96476.28;;;0.25;100.00
33185;BME280;19550;42.872;25.494;2024-03-23T03:09:51;96478.78;;;0.10;100.00
33185;BME280;19550;42.872;25.494;2024-03-23T03:12:17;96486.31;;;0.03;100.00
33185;BME280;19550;42.872;25.494;2024-03-23T03:14:45;96476.69;;;-0.05;100.00
33185;BME280;19550;42.872;25.494;2024-03-23T03:17:11;96473.22;;;0.00;100.00
33185;BME280;19550;42.872;25.494;2024-03-23T03:19:38;96474.94;;;0.06;100.00
33185;BME280;19550;42.872;25.494;2024-03-23T03:22:04;96477.19;;;-0.08;100.00
33185;BME280;19550;42.872;25.494;2024-03-23T03:24:31;96480.56;;;-0.01;100.00
33185;BME280;19550;42.872;25.494;2024-03-23T03:26:57;96467.63;;;-0.10;100.00
33185;BME280;19550;42.872;25.494;2024-03-23T03:29:24;96467.94;;;-0.07;100.00
33185;BME280;19550;42.872;25.494;2024-03-23T03:31:51;96472.50;;;-0.12;100.00
33185;BME280;19550;42.872;25.494;2024-03-23T03:34:18;96479.13;;;-0.25;100.00
33185;BME280;19550;42.872;25.494;2024-03-23T03:36:43;96484.31;;;-0.23;100.00
33185;BME280;19550;42.872;25.494;2024-03-23T03:39:10;96478.06;;;-0.24;100.00
33185;BME280;19550;42.872;25.494;2024-03-23T03:41:36;96478.06;;;-0.24;100.00
33185;BME280;19550;42.872;25.494;2024-03-23T03:44:03;96477.41;;;-0.31;100.00
33185;BME280;19550;42.872;25.494;2024-03-23T03:46:29;96483.59;;;-0.35;100.00
33185;BME280;19550;42.872;25.494;2024-03-23T03:48:57;96470.41;;;-0.44;100.00
33185;BME280;19550;42.872;25.494;2024-03-23T03:51:23;96480.47;;;-0.27;100.00
33185;BME280;19550;42.872;25.494;2024-03-23T03:53:50;96480.72;;;-0.29;100.00
33185;BME280;19550;42.872;25.494;2024-03-23T03:56:16;96477.56;;;-0.37;100.00
33185;BME280;19550;42.872;25.494;2024-03-23T03:58:43;96484.38;;;-0.40;100.00
33185;BME280;19550;42.872;25.494;2024-03-23T04:01:09;96485.31;;;-0.29;100.00
33185;BME280;19550;42.872;25.494;2024-03-23T04:03:36;96481.91;;;-0.20;100.00
33185;BME280;19550;42.872;25.494;2024-03-23T04:06:03;96484.91;;;-0.21;100.00
33185;BME280;19550;42.872;25.494;2024-03-23T04:08:30;96486.81;;;-0.22;100.00
33185;BME280;19550;42.872;25.494;2024-03-23T04:10:56;96490.00;;;-0.25;100.00
33185;BME280;19550;42.872;25.494;2024-03-23T04:13:23;96484.91;;;-0.38;100.00
33185;BME280;19550;42.872;25.494;2024-03-23T04:15:48;96491.13;;;-0.43;100.00
33185;BME280;19550;42.872;25.494;2024-03-23T04:18:15;96481.88;;;-0.42;100.00
33185;BME280;19550;42.872;25.494;2024-03-23T04:20:43;96487.75;;;-0.50;100.00
33185;BME280;19550;42.872;25.494;2024-03-23T04:23:11;96487.41;;;-0.53;100.00
33185;BME280;19550;42.872;25.494;2024-03-23T04:25:37;96488.41;;;-0.43;100.00
33185;BME280;19550;42.872;25.494;2024-03-23T04:28:04;96490.38;;;-0.38;100.00
33185;BME280;19550;42.872;25.494;2024-03-23T04:30:30;96486.34;;;-0.35;100.00
33185;BME280;19550;42.872;25.494;2024-03-23T04:32:57;96493.91;;;-0.37;100.00
33185;BME280;19550;42.872;25.494;2024-03-23T04:35:23;96483.44;;;-0.46;100.00
33185;BME280;19550;42.872;25.494;2024-03-23T04:37:51;96489.13;;;-0.30;100.00
33185;BME280;19550;42.872;25.494;2024-03-23T04:40:19;96492.81;;;-0.20;100.00
33185;BME280;19550;42.872;25.494;2024-03-23T04:42:46;96492.97;;;-0.26;100.00
33185;BME280;19550;42.872;25.494;2024-03-23T04:45:13;96489.78;;;-0.23;100.00
33185;BME280;19550;42.872;25.494;2024-03-23T04:47:40;96487.88;;;-0.23;100.00
33185;BME280;19550;42.872;25.494;2024-03-23T04:50:08;96487.28;;;-0.08;100.00
33185;BME280;19550;42.872;25.494;2024-03-23T04:52:36;96481.31;;;-0.05;100.00
33185;BME280;19550;42.872;25.494;2024-03-23T04:55:02;96481.91;;;0.19;100.00
33185;BME280;19550;42.872;25.494;2024-03-23T04:57:30;96476.38;;;0.35;100.00
33185;BME280;19550;42.872;25.494;2024-03-23T04:59:56;96478.66;;;0.44;100.00
33185;BME280;19550;42.872;25.494;2024-03-23T05:02:23;96476.56;;;0.51;100.00
33185;BME280;19550;42.872;25.494;2024-03-23T05:04:51;96470.81;;;0.74;100.00
33185;BME280;19550;42.872;25.494;2024-03-23T05:07:16;96477.47;;;0.83;100.00
33185;BME280;19550;42.872;25.494;2024-03-23T05:09:43;96473.19;;;0.92;100.00
33185;BME280;19550;42.872;25.494;2024-03-23T05:12:09;96480.47;;;1.13;100.00
33185;BME280;19550;42.872;25.494;2024-03-23T05:14:37;96477.28;;;1.22;100.00
33185;BME280;19550;42.872;25.494;2024-03-23T05:17:03;96480.00;;;1.22;100.00
33185;BME280;19550;42.872;25.494;2024-03-23T05:19:30;96473.22;;;1.24;100.00
33185;BME280;19550;42.872;25.494;2024-03-23T05:21:56;96475.38;;;1.22;100.00
33185;BME280;19550;42.872;25.494;2024-03-23T05:24:22;96479.28;;;1.31;100.00
33185;BME280;19550;42.872;25.494;2024-03-23T05:26:48;96480.56;;;1.55;100.00
33185;BME280;19550;42.872;25.494;2024-03-23T05:29:15;96479.53;;;1.67;100.00
33185;BME280;19550;42.872;25.494;2024-03-23T05:31:44;96485.91;;;1.77;100.00
33185;BME280;19550;42.872;25.494;2024-03-23T05:34:10;96484.16;;;1.98;100.00
33185;BME280;19550;42.872;25.494;2024-03-23T05:36:36;96473.00;;;2.15;100.00
33185;BME280;19550;42.872;25.494;2024-03-23T05:39:03;96474.72;;;2.26;100.00
33185;BME280;19550;42.872;25.494;2024-03-23T05:41:29;96476.69;;;2.40;100.00
33185;BME280;19550;42.872;25.494;2024-03-23T05:43:56;96474.34;;;2.69;100.00
33185;BME280;19550;42.872;25.494;2024-03-23T05:46:21;96464.28;;;2.85;100.00
33185;BME280;19550;42.872;25.494;2024-03-23T05:48:50;96465.13;;;3.16;99.69
33185;BME280;19550;42.872;25.494;2024-03-23T05:51:16;96465.66;;;3.08;99.13
33185;BME280;19550;42.872;25.494;2024-03-23T05:53:43;96472.25;;;3.22;98.92
33185;BME280;19550;42.872;25.494;2024-03-23T05:56:09;96458.59;;;3.37;98.08
33185;BME280;19550;42.872;25.494;2024-03-23T05:58:35;96463.78;;;3.69;97.30
33185;BME280;19550;42.872;25.494;2024-03-23T06:01:02;96462.38;;;3.82;95.55
33185;BME280;19550;42.872;25.494;2024-03-23T06:03:29;96460.94;;;4.15;95.07
33185;BME280;19550;42.872;25.494;2024-03-23T06:05:56;96461.19;;;4.28;94.09
33185;BME280;19550;42.872;25.494;2024-03-23T06:08:23;96456.19;;;4.40;93.16
33185;BME280;19550;42.872;25.494;2024-03-23T06:10:49;96457.53;;;4.53;92.74
33185;BME280;19550;42.872;25.494;2024-03-23T06:13:16;96445.38;;;4.69;92.13
33185;BME280;19550;42.872;25.494;2024-03-23T06:15:43;96452.41;;;4.86;91.39
33185;BME280;19550;42.872;25.494;2024-03-23T06:18:11;96451.31;;;4.92;91.09
33185;BME280;19550;42.872;25.494;2024-03-23T06:20:37;96450.41;;;5.01;91.05
33185;BME280;19550;42.872;25.494;2024-03-23T06:23:05;96438.56;;;5.06;89.85
33185;BME280;19550;42.872;25.494;2024-03-23T06:25:31;96447.44;;;5.37;89.76
33185;BME280;19550;42.872;25.494;2024-03-23T06:27:58;96436.19;;;5.67;89.51
33185;BME280;19550;42.872;25.494;2024-03-23T06:30:24;96444.22;;;5.92;87.93
33185;BME280;19550;42.872;25.494;2024-03-23T06:32:52;96436.16;;;6.01;86.04
33185;BME280;19550;42.872;25.494;2024-03-23T06:35:18;96433.66;;;6.28;85.65
33185;BME280;19550;42.872;25.494;2024-03-23T06:37:45;96439.16;;;6.52;84.68
33185;BME280;19550;42.872;25.494;2024-03-23T06:40:13;96443.38;;;6.68;83.41
33185;BME280;19550;42.872;25.494;2024-03-23T06:42:43;96435.66;;;6.70;82.10
33185;BME280;19550;42.872;25.494;2024-03-23T06:45:09;96432.63;;;6.91;81.86
33185;BME280;19550;42.872;25.494;2024-03-23T06:47:36;96427.84;;;7.15;80.13
33185;BME280;19550;42.872;25.494;2024-03-23T06:50:03;96418.00;;;7.46;78.83
33185;BME280;19550;42.872;25.494;2024-03-23T06:52:30;96400.75;;;7.54;77.47
33185;BME280;19550;42.872;25.494;2024-03-23T06:54:57;96420.47;;;7.80;77.28
33185;BME280;19550;42.872;25.494;2024-03-23T06:57:25;96421.88;;;8.10;75.91
33185;BME280;19550;42.872;25.494;2024-03-23T06:59:51;96410.66;;;8.34;75.49
33185;BME280;19550;42.872;25.494;2024-03-23T07:02:21;96405.13;;;8.61;72.56
33185;BME280;19550;42.872;25.494;2024-03-23T07:04:46;96390.25;;;8.85;71.94
33185;BME280;19550;42.872;25.494;2024-03-23T07:07:13;96411.00;;;9.09;70.27
33185;BME280;19550;42.872;25.494;2024-03-23T07:09:40;96399.97;;;9.32;68.59
33185;BME280;19550;42.872;25.494;2024-03-23T07:12:08;96403.03;;;9.44;67.92
33185;BME280;19550;42.872;25.494;2024-03-23T07:14:35;96399.13;;;9.67;67.15
33185;BME280;19550;42.872;25.494;2024-03-23T07:17:02;96396.97;;;9.86;66.99
33185;BME280;19550;42.872;25.494;2024-03-23T07:19:27;96387.44;;;10.01;67.55
33185;BME280;19550;42.872;25.494;2024-03-23T07:21:54;96372.78;;;10.23;65.92
33185;BME280;19550;42.872;25.494;2024-03-23T07:24:20;96382.16;;;10.53;65.83
33185;BME280;19550;42.872;25.494;2024-03-23T07:26:47;96381.09;;;10.80;62.91
33185;BME280;19550;42.872;25.494;2024-03-23T07:29:13;96385.06;;;10.96;59.28
33185;BME280;19550;42.872;25.494;2024-03-23T07:31:41;96374.81;;;11.22;57.91
33185;BME280;19550;42.872;25.494;2024-03-23T07:34:07;96375.47;;;11.53;55.08
33185;BME280;19550;42.872;25.494;2024-03-23T07:36:34;96365.50;;;11.78;52.19
33185;BME280;19550;42.872;25.494;2024-03-23T07:39:00;96366.81;;;11.89;48.64
33185;BME280;19550;42.872;25.494;2024-03-23T07:41:26;96369.97;;;12.17;48.58
33185;BME280;19550;42.872;25.494;2024-03-23T07:43:53;96356.00;;;12.43;49.40
33185;BME280;19550;42.872;25.494;2024-03-23T07:46:20;96350.06;;;12.53;48.13
33185;BME280;19550;42.872;25.494;2024-03-23T07:48:48;96350.25;;;12.78;43.34
33185;BME280;19550;42.872;25.494;2024-03-23T07:51:16;96347.50;;;12.98;42.45
33185;BME280;19550;42.872;25.494;2024-03-23T07:53:43;96338.84;;;13.29;42.07
33185;BME280;19550;42.872;25.494;2024-03-23T07:56:11;96335.81;;;13.55;41.59
33185;BME280;19550;42.872;25.494;2024-03-23T07:58:38;96337.53;;;13.80;41.08
33185;BME280;19550;42.872;25.494;2024-03-23T08:01:06;96334.81;;;14.05;41.85
33185;BME280;19550;42.872;25.494;2024-03-23T08:03:33;96324.53;;;14.29;40.94
33185;BME280;19550;42.872;25.494;2024-03-23T08:06:08;96326.91;;;14.52;41.00
33185;BME280;19550;42.872;25.494;2024-03-23T08:08:34;96324.59;;;14.78;40.61
33185;BME280;19550;42.872;25.494;2024-03-23T08:11:01;96329.25;;;14.86;38.97
33185;BME280;19550;42.872;25.494;2024-03-23T08:13:27;96326.22;;;14.91;39.63
33185;BME280;19550;42.872;25.494;2024-03-23T08:15:56;96324.00;;;14.97;39.47
33185;BME280;19550;42.872;25.494;2024-03-23T08:18:22;96318.50;;;15.13;39.84
33185;BME280;19550;42.872;25.494;2024-03-23T08:20:55;96316.16;;;15.27;38.83
33185;BME280;19550;42.872;25.494;2024-03-23T08:23:23;96315.44;;;15.30;37.76
33185;BME280;19550;42.872;25.494;2024-03-23T08:25:50;96317.75;;;15.40;37.81
33185;BME280;19550;42.872;25.494;2024-03-23T08:28:15;96314.59;;;15.54;37.37
33185;BME280;19550;42.872;25.494;2024-03-23T08:30:42;96313.63;;;15.49;36.66
33185;BME280;19550;42.872;25.494;2024-03-23T08:33:08;96310.28;;;15.44;36.51
33185;BME280;19550;42.872;25.494;2024-03-23T08:35:35;96305.53;;;15.32;35.92
33185;BME280;19550;42.872;25.494;2024-03-23T08:38:01;96307.78;;;15.67;36.62
33185;BME280;19550;42.872;25.494;2024-03-23T08:40:29;96301.59;;;15.73;35.47
33185;BME280;19550;42.872;25.494;2024-03-23T08:42:55;96297.66;;;15.90;35.42
33185;BME280;19550;42.872;25.494;2024-03-23T08:45:22;96308.06;;;16.05;36.19
33185;BME280;19550;42.872;25.494;2024-03-23T08:47:48;96302.69;;;16.28;35.07
33185;BME280;19550;42.872;25.494;2024-03-23T08:50:14;96294.81;;;16.49;34.28
33185;BME280;19550;42.872;25.494;2024-03-23T08:52:40;96293.03;;;16.41;33.85
33185;BME280;19550;42.872;25.494;2024-03-23T08:55:08;96292.81;;;16.50;32.80
33185;BME280;19550;42.872;25.494;2024-03-23T08:57:36;96294.94;;;16.68;33.59
33185;BME280;19550;42.872;25.494;2024-03-23T09:00:04;96286.16;;;16.70;33.12
33185;BME280;19550;42.872;25.494;2024-03-23T09:02:31;96290.06;;;16.81;32.90
33185;BME280;19550;42.872;25.494;2024-03-23T09:04:58;96283.44;;;16.89;32.67
33185;BME280;19550;42.872;25.494;2024-03-23T09:07:31;96275.47;;;17.07;32.57
33185;BME280;19550;42.872;25.494;2024-03-23T09:09:58;96274.72;;;17.29;32.28
33185;BME280;19550;42.872;25.494;2024-03-23T09:12:24;96280.28;;;17.26;31.50
33185;BME280;19550;42.872;25.494;2024-03-23T09:14:52;96273.81;;;17.41;31.09
33185;BME280;19550;42.872;25.494;2024-03-23T09:17:18;96273.41;;;17.42;30.37
33185;BME280;19550;42.872;25.494;2024-03-23T09:19:45;96267.53;;;17.47;30.49
33185;BME280;19550;42.872;25.494;2024-03-23T09:22:11;96268.09;;;17.57;29.01
33185;BME280;19550;42.872;25.494;2024-03-23T09:24:38;96257.88;;;17.64;29.67
33185;BME280;19550;42.872;25.494;2024-03-23T09:27:05;96248.34;;;17.49;29.23
33185;BME280;19550;42.872;25.494;2024-03-23T09:29:31;96250.25;;;17.84;29.76
33185;BME280;19550;42.872;25.494;2024-03-23T09:31:59;96253.00;;;17.80;29.22
33185;BME280;19550;42.872;25.494;2024-03-23T09:34:26;96252.78;;;18.12;29.57
33185;BME280;19550;42.872;25.494;2024-03-23T09:36:51;96239.28;;;18.40;29.50
33185;BME280;19550;42.872;25.494;2024-03-23T09:39:18;96241.97;;;18.33;28.58
33185;BME280;19550;42.872;25.494;2024-03-23T09:41:45;96244.84;;;18.59;28.35
33185;BME280;19550;42.872;25.494;2024-03-23T09:44:12;96235.38;;;18.71;28.08
33185;BME280;19550;42.872;25.494;2024-03-23T09:46:38;96235.00;;;18.50;28.52
33185;BME280;19550;42.872;25.494;2024-03-23T09:49:07;96235.28;;;18.64;28.40
33185;BME280;19550;42.872;25.494;2024-03-23T09:51:35;96225.03;;;18.52;28.61
33185;BME280;19550;42.872;25.494;2024-03-23T09:54:02;96221.69;;;18.92;28.64
33185;BME280;19550;42.872;25.494;2024-03-23T09:56:28;96218.66;;;18.78;28.27
33185;BME280;19550;42.872;25.494;2024-03-23T09:59:00;96212.19;;;18.74;28.12
33185;BME280;19550;42.872;25.494;2024-03-23T10:01:26;96217.00;;;19.03;27.90
33185;BME280;19550;42.872;25.494;2024-03-23T10:03:53;96217.28;;;18.69;27.69
33185;BME280;19550;42.872;25.494;2024-03-23T10:06:22;96206.72;;;18.58;28.11
33185;BME280;19550;42.872;25.494;2024-03-23T10:08:50;96201.38;;;18.76;28.06
33185;BME280;19550;42.872;25.494;2024-03-23T10:11:17;96206.88;;;19.25;28.40
33185;BME280;19550;42.872;25.494;2024-03-23T10:13:44;96198.13;;;19.64;27.84
33185;BME280;19550;42.872;25.494;2024-03-23T10:16:12;96206.19;;;19.35;26.50
33185;BME280;19550;42.872;25.494;2024-03-23T10:18:39;96211.69;;;19.25;26.15
33185;BME280;19550;42.872;25.494;2024-03-23T10:21:08;96194.06;;;18.98;26.50
33185;BME280;19550;42.872;25.494;2024-03-23T10:23:39;96187.03;;;19.15;25.55
33185;BME280;19550;42.872;25.494;2024-03-23T10:26:16;96185.50;;;19.47;26.45
33185;BME280;19550;42.872;25.494;2024-03-23T10:28:51;96177.63;;;19.60;26.34
33185;BME280;19550;42.872;25.494;2024-03-23T10:31:17;96178.88;;;19.32;25.97
33185;BME280;19550;42.872;25.494;2024-03-23T10:33:45;96171.75;;;19.75;25.88
33185;BME280;19550;42.872;25.494;2024-03-23T10:36:11;96160.47;;;20.12;25.84
33185;BME280;19550;42.872;25.494;2024-03-23T10:38:40;96154.41;;;20.10;25.62
33185;BME280;19550;42.872;25.494;2024-03-23T10:41:07;96166.19;;;19.82;25.62
33185;BME280;19550;42.872;25.494;2024-03-23T10:43:36;96156.97;;;19.49;25.24
33185;BME280;19550;42.872;25.494;2024-03-23T10:46:02;96145.88;;;20.00;26.72
33185;BME280;19550;42.872;25.494;2024-03-23T10:48:29;96141.13;;;20.07;26.29
33185;BME280;19550;42.872;25.494;2024-03-23T10:50:55;96147.16;;;20.09;26.37
33185;BME280;19550;42.872;25.494;2024-03-23T10:53:25;96150.72;;;20.03;26.13
33185;BME280;19550;42.872;25.494;2024-03-23T10:55:54;96128.22;;;20.03;25.85
33185;BME280;19550;42.872;25.494;2024-03-23T10:58:24;96134.13;;;19.91;25.42
33185;BME280;19550;42.872;25.494;2024-03-23T11:00:52;96126.88;;;19.90;25.59
33185;BME280;19550;42.872;25.494;2024-03-23T11:03:30;96122.56;;;19.99;24.76
33185;BME280;19550;42.872;25.494;2024-03-23T11:05:56;96122.94;;;19.98;24.84
33185;BME280;19550;42.872;25.494;2024-03-23T11:08:36;96118.78;;;19.81;24.47
33185;BME280;19550;42.872;25.494;2024-03-23T11:11:22;96105.88;;;19.76;24.51
33185;BME280;19550;42.872;25.494;2024-03-23T11:13:52;96114.31;;;19.39;24.49
33185;BME280;19550;42.872;25.494;2024-03-23T11:16:22;96096.06;;;19.60;24.07
33185;BME280;19550;42.872;25.494;2024-03-23T11:18:49;96104.75;;;19.88;24.07
33185;BME280;19550;42.872;25.494;2024-03-23T11:24:15;96082.28;;;20.39;24.00
33185;BME280;19550;42.872;25.494;2024-03-23T11:26:42;96076.84;;;20.71;24.01
33185;BME280;19550;42.872;25.494;2024-03-23T11:29:10;96088.44;;;20.59;23.63
33185;BME280;19550;42.872;25.494;2024-03-23T11:31:36;96072.53;;;20.91;23.85
33185;BME280;19550;42.872;25.494;2024-03-23T11:34:04;96068.41;;;20.71;23.53
33185;BME280;19550;42.872;25.494;2024-03-23T11:36:30;96076.06;;;20.78;23.85
33185;BME280;19550;42.872;25.494;2024-03-23T11:38:56;96065.19;;;20.76;24.34
33185;BME280;19550;42.872;25.494;2024-03-23T11:41:22;96060.44;;;20.87;24.34
33185;BME280;19550;42.872;25.494;2024-03-23T11:43:50;96057.16;;;20.82;24.13
33185;BME280;19550;42.872;25.494;2024-03-23T11:46:22;96052.94;;;21.23;23.26
33185;BME280;19550;42.872;25.494;2024-03-23T11:48:49;96045.69;;;21.26;23.55
33185;BME280;19550;42.872;25.494;2024-03-23T11:51:15;96050.56;;;21.39;23.74
33185;BME280;19550;42.872;25.494;2024-03-23T11:53:43;96044.78;;;21.04;24.51
33185;BME280;19550;42.872;25.494;2024-03-23T11:56:09;96048.19;;;21.52;23.79
33185;BME280;19550;42.872;25.494;2024-03-23T11:58:36;96037.28;;;21.44;23.55
33185;BME280;19550;42.872;25.494;2024-03-23T12:01:03;96039.69;;;21.56;23.14
33185;BME280;19550;42.872;25.494;2024-03-23T12:03:31;96036.50;;;21.68;22.85
33185;BME280;19550;42.872;25.494;2024-03-23T12:05:59;96027.19;;;21.39;22.18
33185;BME280;19550;42.872;25.494;2024-03-23T12:08:29;96024.03;;;21.79;23.73
33185;BME280;19550;42.872;25.494;2024-03-23T12:11:05;96021.53;;;21.32;22.46
33185;BME280;19550;42.872;25.494;2024-03-23T12:13:32;96020.78;;;21.56;23.11
33185;BME280;19550;42.872;25.494;2024-03-23T12:16:09;96008.69;;;21.45;23.17
33185;BME280;19550;42.872;25.494;2024-03-23T12:18:36;96008.28;;;21.71;22.99
33185;BME280;19550;42.872;25.494;2024-03-23T12:21:03;96006.69;;;21.70;22.48
33185;BME280;19550;42.872;25.494;2024-03-23T12:23:30;95995.00;;;22.04;22.72
33185;BME280;19550;42.872;25.494;2024-03-23T12:25:56;95993.75;;;22.33;21.96
33185;BME280;19550;42.872;25.494;2024-03-23T12:28:23;95994.88;;;22.64;21.29
33185;BME280;19550;42.872;25.494;2024-03-23T12:30:48;95994.03;;;22.74;21.29
33185;BME280;19550;42.872;25.494;2024-03-23T12:33:17;95989.91;;;22.96;20.97
33185;BME280;19550;42.872;25.494;2024-03-23T12:35:42;95974.31;;;23.40;21.81
33185;BME280;19550;42.872;25.494;2024-03-23T12:38:09;95984.75;;;22.77;21.18
33185;BME280;19550;42.872;25.494;2024-03-23T12:40:35;95982.78;;;22.49;21.22
33185;BME280;19550;42.872;25.494;2024-03-23T12:43:02;95988.81;;;22.62;21.64
33185;BME280;19550;42.872;25.494;2024-03-23T12:45:28;95974.97;;;22.96;20.71
33185;BME280;19550;42.872;25.494;2024-03-23T12:47:54;95967.09;;;23.32;20.79
33185;BME280;19550;42.872;25.494;2024-03-23T12:50:23;95969.97;;;23.21;21.02
33185;BME280;19550;42.872;25.494;2024-03-23T12:52:49;95971.03;;;23.52;20.72
33185;BME280;19550;42.872;25.494;2024-03-23T12:55:16;95962.09;;;23.54;21.17
33185;BME280;19550;42.872;25.494;2024-03-23T12:57:42;95957.94;;;23.69;20.55
33185;BME280;19550;42.872;25.494;2024-03-23T13:00:10;95957.13;;;23.72;20.90
33185;BME280;19550;42.872;25.494;2024-03-23T13:02:37;95951.03;;;24.18;21.05
33185;BME280;19550;42.872;25.494;2024-03-23T13:05:04;95945.38;;;24.14;19.31
33185;BME280;19550;42.872;25.494;2024-03-23T13:07:32;95943.81;;;24.10;21.17
33185;BME280;19550;42.872;25.494;2024-03-23T13:09:59;95952.00;;;22.83;20.42
33185;BME280;19550;42.872;25.494;2024-03-23T13:12:24;95942.69;;;22.93;20.74
33185;BME280;19550;42.872;25.494;2024-03-23T13:14:51;95940.59;;;23.63;20.08
33185;BME280;19550;42.872;25.494;2024-03-23T13:17:17;95932.75;;;24.26;19.87
33185;BME280;19550;42.872;25.494;2024-03-23T13:19:44;95932.75;;;24.26;20.27
33185;BME280;19550;42.872;25.494;2024-03-23T13:22:10;95930.59;;;24.37;20.32
33185;BME280;19550;42.872;25.494;2024-03-23T13:24:38;95917.06;;;23.73;20.36
33185;BME280;19550;42.872;25.494;2024-03-23T13:27:04;95925.69;;;23.59;21.29
33185;BME280;19550;42.872;25.494;2024-03-23T13:29:33;95925.28;;;24.02;20.94
33185;BME280;19550;42.872;25.494;2024-03-23T13:31:59;95926.22;;;23.92;20.50
33185;BME280;19550;42.872;25.494;2024-03-23T13:34:26;95917.53;;;24.09;20.62
33185;BME280;19550;42.872;25.494;2024-03-23T13:36:53;95917.91;;;24.11;20.23
33185;BME280;19550;42.872;25.494;2024-03-23T13:39:20;95911.28;;;24.29;20.80
33185;BME280;19550;42.872;25.494;2024-03-23T13:41:47;95911.41;;;24.82;19.74
33185;BME280;19550;42.872;25.494;2024-03-23T13:44:14;95907.28;;;24.90;21.45